Time;durP1;ratioP1;P1;durP2;ratioP2;P2;SDS_P1;SDS_P2;PMS_P1;PMS_P2;Temp;Humidity;BMP_temperature;BMP_pressure;BME280_temperature;BME280_humidity;BME280_pressure;Samples;Min_cycle;Max_cycle;Signal;HPM_P1;HPM_P2
2022/12/12 00:02:08;;;;;;;;;;;-0.30;99.90;;;;;;5051524;28;19946;-74
2022/12/12 00:04:33;;;;;;;;;;;-0.40;99.90;;;;;;5024120;28;19921;-74
2022/12/12 00:06:59;;;;;;;;;;;-0.30;99.90;;;;;;5053654;28;20023;-73
2022/12/12 00:09:24;;;;;;;;;;;-0.50;99.90;;;;;;5054801;28;19920;-74
2022/12/12 00:11:50;;;;;;;;;;;-0.40;99.90;;;;;;5049872;28;20392;-74
2022/12/12 00:14:15;;;;;;;;;;;-0.20;99.90;;;;;;5019670;28;20318;-73
2022/12/12 00:16:41;;;;;;;;;;;-0.50;99.90;;;;;;5051613;28;20008;-74
2022/12/12 00:19:06;;;;;;;;;;;-0.40;99.90;;;;;;5054337;28;19925;-74
2022/12/12 00:21:32;;;;;;;;;;;-0.50;99.90;;;;;;5033037;28;20337;-74
2022/12/12 00:23:58;;;;;;;;;;;-0.50;99.90;;;;;;5053068;28;20535;-74
2022/12/12 00:26:26;;;;;;;;;;;-0.50;99.90;;;;;;5045183;28;20409;-73
2022/12/12 00:28:52;;;;;;;;;;;-0.50;99.90;;;;;;5036003;28;20449;-74
2022/12/12 00:31:17;;;;;;;;;;;-0.50;99.90;;;;;;5056354;28;20064;-74
2022/12/12 00:33:45;;;;;;;;;;;-0.50;99.90;;;;;;5057500;28;20405;-73
2022/12/12 00:36:11;;;;;;;;;;;-0.30;99.90;;;;;;5034579;28;19921;-74
2022/12/12 00:38:36;;;;;;;;;;;-0.50;99.90;;;;;;5053624;28;19929;-74
2022/12/12 00:41:02;;;;;;;;;;;-0.50;99.90;;;;;;5037075;28;20317;-74
2022/12/12 00:43:28;;;;;;;;;;;-0.50;99.90;;;;;;5035184;28;20156;-74
2022/12/12 00:45:56;;;;;;;;;;;-0.50;99.90;;;;;;5037428;28;20193;-74
2022/12/12 00:48:22;;;;;;;;;;;-0.50;99.90;;;;;;5049020;28;19921;-74
2022/12/12 00:50:47;;;;;;;;;;;-0.50;99.90;;;;;;5017996;28;19932;-73
2022/12/12 00:53:13;;;;;;;;;;;-0.50;99.90;;;;;;5036798;28;20424;-74
2022/12/12 00:55:38;;;;;;;;;;;-0.50;99.90;;;;;;5054192;28;19932;-74
2022/12/12 00:58:04;;;;;;;;;;;-0.50;99.90;;;;;;5021178;28;19927;-74
2022/12/12 01:00:30;;;;;;;;;;;-0.50;99.90;;;;;;5035004;28;19924;-74
2022/12/12 01:02:56;;;;;;;;;;;-0.50;99.90;;;;;;5049551;28;20416;-74
2022/12/12 01:05:22;;;;;;;;;;;-0.50;99.90;;;;;;5051710;28;19921;-74
2022/12/12 01:07:48;;;;;;;;;;;-0.50;99.90;;;;;;5052132;28;19953;-74
2022/12/12 01:10:13;;;;;;;;;;;-0.50;99.90;;;;;;5050886;28;19951;-74
2022/12/12 01:12:39;;;;;;;;;;;-0.50;99.90;;;;;;5052229;28;19924;-74
2022/12/12 01:15:06;;;;;;;;;;;-0.50;99.90;;;;;;5016393;28;20018;-74
2022/12/12 01:17:36;;;;;;;;;;;-0.50;99.90;;;;;;5032221;28;19935;-74
2022/12/12 01:20:03;;;;;;;;;;;-0.50;99.90;;;;;;5021006;28;19927;-73
2022/12/12 01:22:29;;;;;;;;;;;-0.50;99.90;;;;;;5053431;28;20451;-74
2022/12/12 01:24:55;;;;;;;;;;;-0.50;99.90;;;;;;5034986;28;20029;-73
2022/12/12 01:27:21;;;;;;;;;;;-0.50;99.90;;;;;;5052007;28;19933;-74
2022/12/12 01:29:47;;;;;;;;;;;-0.50;99.90;;;;;;5033129;28;19974;-74
2022/12/12 01:32:13;;;;;;;;;;;-0.50;99.90;;;;;;5031430;28;20021;-74
2022/12/12 01:34:38;;;;;;;;;;;-0.50;99.90;;;;;;5033206;28;19925;-74
2022/12/12 01:37:04;;;;;;;;;;;-0.50;99.90;;;;;;5031889;28;19924;-74
2022/12/12 01:39:29;;;;;;;;;;;-0.50;99.90;;;;;;5049560;28;19927;-74
2022/12/12 01:41:55;;;;;;;;;;;-0.50;99.90;;;;;;5053277;28;19935;-74
2022/12/12 01:44:56;;;;;;;;;;;-0.50;99.90;;;;;;5066648;28;19963;-74
2022/12/12 01:47:22;;;;;;;;;;;-0.50;99.90;;;;;;4970079;28;20423;-73
2022/12/12 01:49:59;;;;;;;;;;;-0.50;99.90;;;;;;5031814;28;19921;-74
2022/12/12 01:52:30;;;;;;;;;;;-0.50;99.90;;;;;;5036266;28;19952;-74
2022/12/12 01:54:58;;;;;;;;;;;-0.50;99.90;;;;;;5047932;28;20509;-74
2022/12/12 01:57:30;;;;;;;;;;;-0.50;99.90;;;;;;5051193;28;19925;-74
2022/12/12 01:59:57;;;;;;;;;;;-0.50;99.90;;;;;;5046309;28;20321;-74
2022/12/12 02:02:22;;;;;;;;;;;-0.50;99.90;;;;;;5050769;28;19920;-74
2022/12/12 02:04:48;;;;;;;;;;;-0.50;99.90;;;;;;5050641;28;19921;-74
2022/12/12 02:07:14;;;;;;;;;;;-0.50;99.90;;;;;;5030002;28;20004;-74
2022/12/12 02:09:39;;;;;;;;;;;-0.50;99.90;;;;;;5052406;28;19920;-73
2022/12/12 02:12:05;;;;;;;;;;;-0.40;99.90;;;;;;5035542;28;19928;-74
2022/12/12 02:14:33;;;;;;;;;;;-0.50;99.90;;;;;;5051202;28;19956;-74
2022/12/12 02:17:17;;;;;;;;;;;-0.50;99.90;;;;;;5048548;28;19920;-74
2022/12/12 02:19:46;;;;;;;;;;;-0.50;99.90;;;;;;5051533;28;19931;-74
2022/12/12 02:22:31;;;;;;;;;;;-0.50;99.90;;;;;;5048893;28;20051;-74
2022/12/12 02:24:56;;;;;;;;;;;-0.50;99.90;;;;;;5037231;28;20003;-74
2022/12/12 02:27:28;;;;;;;;;;;-0.50;99.90;;;;;;5047348;28;20039;-74
2022/12/12 02:30:12;;;;;;;;;;;-0.50;99.90;;;;;;5044227;28;20289;-74
2022/12/12 02:32:56;;;;;;;;;;;-0.50;99.90;;;;;;5049839;28;19967;-74
2022/12/12 02:35:32;;;;;;;;;;;-0.50;99.90;;;;;;5032316;28;19939;-74
2022/12/12 02:38:04;;;;;;;;;;;-0.50;99.90;;;;;;5048978;28;20277;-74
2022/12/12 02:40:32;;;;;;;;;;;-0.50;99.90;;;;;;5044986;28;20019;-74
2022/12/12 02:43:03;;;;;;;;;;;-0.50;99.90;;;;;;5030796;28;20179;-74
2022/12/12 02:45:55;;;;;;;;;;;-0.50;99.90;;;;;;5043673;28;19971;-74
2022/12/12 02:48:20;;;;;;;;;;;-0.50;99.90;;;;;;5019080;28;19966;-74
2022/12/12 02:50:47;;;;;;;;;;;-0.50;99.90;;;;;;5051411;28;19932;-74
2022/12/12 02:53:16;;;;;;;;;;;-0.50;99.90;;;;;;5048620;28;20294;-74
2022/12/12 02:55:41;;;;;;;;;;;-0.50;99.90;;;;;;5049303;28;19955;-74
2022/12/12 02:58:07;;;;;;;;;;;-0.50;99.90;;;;;;5025741;28;20390;-74
2022/12/12 03:00:39;;;;;;;;;;;-0.50;99.90;;;;;;5047765;28;19928;-74
2022/12/12 03:09:37;;;;;;;;;;;-0.50;99.90;;;;;;5014983;28;20416;-73
2022/12/12 03:12:05;;;;;;;;;;;-0.50;99.90;;;;;;5010428;28;20386;-74
2022/12/12 03:14:49;;;;;;;;;;;-0.50;99.90;;;;;;5035597;28;19932;-73
2022/12/12 03:17:21;;;;;;;;;;;-1.90;99.90;;;;;;5041086;28;19926;-74
2022/12/12 03:19:49;;;;;;;;;;;-0.50;99.90;;;;;;5048509;28;19920;-74
2022/12/12 03:22:23;;;;;;;;;;;-0.50;99.90;;;;;;5035139;28;19998;-74
2022/12/12 03:24:55;;;;;;;;;;;-0.50;99.90;;;;;;5065192;28;19924;-74
2022/12/12 03:27:20;;;;;;;;;;;-0.50;99.90;;;;;;5027897;28;19972;-74
2022/12/12 03:29:58;;;;;;;;;;;-0.50;99.90;;;;;;5034145;28;19963;-73
2022/12/12 03:32:38;;;;;;;;;;;-0.60;99.90;;;;;;5052023;28;20442;-73
2022/12/12 03:35:12;;;;;;;;;;;-0.50;99.90;;;;;;5050701;28;19936;-74
2022/12/12 03:37:41;;;;;;;;;;;-0.60;99.90;;;;;;5049681;28;19920;-74
2022/12/12 03:40:08;;;;;;;;;;;-0.50;99.90;;;;;;5049795;28;20024;-74
2022/12/12 03:42:38;;;;;;;;;;;-0.50;99.90;;;;;;5049420;28;21391;-74
2022/12/12 03:45:33;;;;;;;;;;;-0.60;99.90;;;;;;5042469;28;20305;-74
2022/12/12 03:48:04;;;;;;;;;;;-0.60;99.90;;;;;;5018478;28;19920;-74
2022/12/12 03:50:53;;;;;;;;;;;-0.50;99.90;;;;;;5053647;28;20464;-74
2022/12/12 03:53:35;;;;;;;;;;;-0.50;99.90;;;;;;5038725;28;20015;-74
2022/12/12 03:56:00;;;;;;;;;;;-0.50;99.90;;;;;;5054132;28;20479;-74
2022/12/12 03:58:28;;;;;;;;;;;-0.50;99.90;;;;;;5031527;28;19967;-74
2022/12/12 04:00:56;;;;;;;;;;;0.00;99.90;;;;;;5031871;28;20362;-73
2022/12/12 04:03:39;;;;;;;;;;;-0.50;99.90;;;;;;5043816;28;20429;-74
2022/12/12 04:06:26;;;;;;;;;;;-0.50;99.90;;;;;;5051115;28;19925;-73
2022/12/12 04:14:44;;;;;;;;;;;-0.50;99.90;;;;;;5050818;28;19951;-74
2022/12/12 04:17:11;;;;;;;;;;;-0.50;99.90;;;;;;5052693;28;20310;-74
2022/12/12 04:25:35;;;;;;;;;;;-0.50;99.90;;;;;;5046023;28;19935;-73
2022/12/12 04:28:02;;;;;;;;;;;-0.50;99.90;;;;;;5048460;28;19924;-73
2022/12/12 04:30:30;;;;;;;;;;;-0.50;99.90;;;;;;5049697;28;20340;-74
2022/12/12 04:32:58;;;;;;;;;;;-0.50;99.90;;;;;;5028271;28;20425;-74
2022/12/12 04:35:31;;;;;;;;;;;-0.50;99.90;;;;;;5030489;28;20426;-74
2022/12/12 04:38:00;;;;;;;;;;;-0.50;99.90;;;;;;5034403;28;20471;-73
2022/12/12 04:40:30;;;;;;;;;;;-0.50;99.90;;;;;;5051134;28;19921;-74
2022/12/12 04:42:58;;;;;;;;;;;-0.50;99.90;;;;;;5053240;28;19960;-74
2022/12/12 04:45:26;;;;;;;;;;;-0.50;99.90;;;;;;5049994;28;20278;-74
2022/12/12 04:47:53;;;;;;;;;;;-0.50;99.90;;;;;;5040781;28;20029;-73
2022/12/12 04:50:20;;;;;;;;;;;-0.50;99.90;;;;;;5033754;28;19920;-74
2022/12/12 04:52:47;;;;;;;;;;;-0.50;99.90;;;;;;5035835;28;20293;-74
2022/12/12 04:55:16;;;;;;;;;;;-0.60;99.90;;;;;;5052872;28;19956;-73
2022/12/12 04:57:43;;;;;;;;;;;-0.50;99.90;;;;;;5032627;28;20298;-74
2022/12/12 05:00:10;;;;;;;;;;;0.20;99.90;;;;;;5049859;28;19925;-73
2022/12/12 05:02:51;;;;;;;;;;;-0.50;99.90;;;;;;5032086;28;20397;-74
2022/12/12 05:05:38;;;;;;;;;;;-0.50;99.90;;;;;;5047671;28;19932;-73
2022/12/12 05:08:12;;;;;;;;;;;-0.50;99.90;;;;;;5051146;28;19921;-74
2022/12/12 05:10:45;;;;;;;;;;;-0.50;99.90;;;;;;5045148;28;19935;-72
2022/12/12 05:13:15;;;;;;;;;;;-0.60;99.90;;;;;;5036320;28;20013;-73
2022/12/12 05:15:40;;;;;;;;;;;-0.50;99.90;;;;;;5047649;28;20086;-73
2022/12/12 05:18:07;;;;;;;;;;;-0.50;99.90;;;;;;5053745;28;20409;-73
2022/12/12 05:20:33;;;;;;;;;;;-0.60;99.90;;;;;;5051768;28;20322;-74
2022/12/12 05:22:58;;;;;;;;;;;-0.50;99.90;;;;;;5049099;28;19932;-73
2022/12/12 05:25:24;;;;;;;;;;;-0.60;99.90;;;;;;5032426;28;20019;-73
2022/12/12 05:27:50;;;;;;;;;;;-0.60;99.90;;;;;;5031356;28;20401;-73
2022/12/12 05:30:16;;;;;;;;;;;-0.60;99.90;;;;;;5035072;28;20340;-73
2022/12/12 05:32:41;;;;;;;;;;;-0.60;99.90;;;;;;5033849;28;19928;-74
2022/12/12 05:35:07;;;;;;;;;;;-0.60;99.90;;;;;;5049910;28;19924;-74
2022/12/12 05:37:33;;;;;;;;;;;-0.60;99.90;;;;;;5041161;28;19920;-74
2022/12/12 05:39:58;;;;;;;;;;;-0.60;99.90;;;;;;5051094;28;20285;-73
2022/12/12 05:42:24;;;;;;;;;;;-0.60;99.90;;;;;;5049703;28;19979;-73
2022/12/12 05:44:50;;;;;;;;;;;-0.60;99.90;;;;;;5052148;28;19924;-74
2022/12/12 05:47:17;;;;;;;;;;;-0.60;99.90;;;;;;5039543;28;20322;-74
2022/12/12 05:49:43;;;;;;;;;;;-0.60;99.90;;;;;;5052447;28;19921;-73
2022/12/12 05:52:09;;;;;;;;;;;-0.60;99.90;;;;;;5032355;28;19928;-73
2022/12/12 05:54:34;;;;;;;;;;;-0.60;99.90;;;;;;5053730;28;19925;-74
2022/12/12 05:57:00;;;;;;;;;;;-0.60;99.90;;;;;;5047185;28;20237;-74
2022/12/12 05:59:26;;;;;;;;;;;-0.50;99.90;;;;;;5039459;28;19920;-73
2022/12/12 06:01:51;;;;;;;;;;;-0.60;99.90;;;;;;5034899;28;19921;-73
2022/12/12 06:04:17;;;;;;;;;;;-0.60;99.90;;;;;;5031459;28;19978;-74
2022/12/12 06:06:42;;;;;;;;;;;-0.60;99.90;;;;;;5033139;28;20366;-73
2022/12/12 06:09:08;;;;;;;;;;;0.80;99.90;;;;;;5034165;28;20495;-73
2022/12/12 06:11:33;;;;;;;;;;;0.20;99.90;;;;;;5048305;28;19932;-74
2022/12/12 06:13:59;;;;;;;;;;;-0.60;99.90;;;;;;5053377;28;20378;-74
2022/12/12 06:16:24;;;;;;;;;;;-0.50;99.90;;;;;;5046267;28;19935;-74
2022/12/12 06:18:51;;;;;;;;;;;-0.50;99.90;;;;;;5029540;28;20277;-73
2022/12/12 06:21:17;;;;;;;;;;;-0.50;99.90;;;;;;5032004;28;20003;-73
2022/12/12 06:23:42;;;;;;;;;;;-0.50;99.90;;;;;;5048369;28;20270;-74
2022/12/12 06:26:09;;;;;;;;;;;-0.50;99.90;;;;;;5048803;28;20152;-74
2022/12/12 06:28:35;;;;;;;;;;;-0.60;99.90;;;;;;5043002;28;19958;-74
2022/12/12 06:31:01;;;;;;;;;;;-0.60;99.90;;;;;;5036410;28;19925;-74
2022/12/12 06:33:27;;;;;;;;;;;-0.60;99.90;;;;;;5033300;28;19936;-74
2022/12/12 06:35:59;;;;;;;;;;;-0.60;99.90;;;;;;5054461;28;19931;-74
2022/12/12 06:38:25;;;;;;;;;;;-0.70;99.90;;;;;;5050494;28;19920;-74
2022/12/12 06:40:50;;;;;;;;;;;-0.70;99.90;;;;;;5049059;28;19959;-74
2022/12/12 06:43:16;;;;;;;;;;;-0.70;99.90;;;;;;5048653;28;20443;-74
2022/12/12 06:45:41;;;;;;;;;;;-0.70;99.90;;;;;;5049001;28;19928;-74
2022/12/12 06:48:07;;;;;;;;;;;-0.70;99.90;;;;;;5029276;28;19920;-74
2022/12/12 06:50:32;;;;;;;;;;;-0.70;99.90;;;;;;5034226;28;19968;-74
2022/12/12 06:52:58;;;;;;;;;;;-0.70;99.90;;;;;;5034628;28;19928;-74
2022/12/12 06:55:23;;;;;;;;;;;-0.80;99.90;;;;;;5048342;28;19946;-74
2022/12/12 06:57:49;;;;;;;;;;;-0.80;99.90;;;;;;5047135;28;19921;-74
2022/12/12 07:00:15;;;;;;;;;;;-0.80;99.90;;;;;;5049730;28;19921;-74
2022/12/12 07:02:40;;;;;;;;;;;-0.80;99.90;;;;;;5045999;28;19928;-74
2022/12/12 07:05:06;;;;;;;;;;;-0.50;99.90;;;;;;5033480;28;20245;-74
2022/12/12 07:07:32;;;;;;;;;;;-0.90;99.90;;;;;;5052532;28;19981;-74
2022/12/12 07:09:58;;;;;;;;;;;-1.00;99.90;;;;;;5049098;28;20031;-74
2022/12/12 07:12:24;;;;;;;;;;;-1.10;99.90;;;;;;5052694;28;20603;-74
2022/12/12 07:14:49;;;;;;;;;;;-1.10;99.90;;;;;;5030550;28;19929;-74
2022/12/12 07:17:15;;;;;;;;;;;-1.20;99.90;;;;;;5046907;28;19929;-74
2022/12/12 07:19:40;;;;;;;;;;;-1.30;99.90;;;;;;5050546;28;20030;-74
2022/12/12 07:22:06;;;;;;;;;;;-1.30;99.90;;;;;;5044176;28;20021;-74
2022/12/12 07:24:31;;;;;;;;;;;-1.40;99.90;;;;;;5033794;28;20313;-74
2022/12/12 07:26:57;;;;;;;;;;;-1.50;99.90;;;;;;5047197;28;20017;-74
2022/12/12 07:29:23;;;;;;;;;;;-1.50;99.90;;;;;;5048776;28;19982;-74
2022/12/12 07:31:48;;;;;;;;;;;-1.60;99.90;;;;;;5037027;28;20015;-74
2022/12/12 07:34:14;;;;;;;;;;;-1.60;99.90;;;;;;5050343;28;19929;-74
2022/12/12 07:36:39;;;;;;;;;;;-1.70;99.90;;;;;;5047469;28;19947;-74
2022/12/12 07:39:05;;;;;;;;;;;-1.80;99.90;;;;;;5027885;28;20374;-74
2022/12/12 07:41:30;;;;;;;;;;;-1.80;99.90;;;;;;5047119;28;20283;-75
2022/12/12 07:43:56;;;;;;;;;;;-1.80;99.90;;;;;;5050886;28;20008;-75
2022/12/12 07:46:23;;;;;;;;;;;-1.50;99.90;;;;;;5017951;28;19921;-75
2022/12/12 07:48:49;;;;;;;;;;;-1.90;99.90;;;;;;5040661;28;19984;-75
2022/12/12 07:51:15;;;;;;;;;;;-1.90;99.90;;;;;;5042761;28;19960;-76
2022/12/12 07:53:41;;;;;;;;;;;-2.00;99.90;;;;;;5011841;28;19983;-76
2022/12/12 07:56:08;;;;;;;;;;;-2.00;99.90;;;;;;5028770;28;19936;-74
2022/12/12 07:58:33;;;;;;;;;;;-2.00;99.90;;;;;;5046745;28;19921;-75
2022/12/12 08:00:59;;;;;;;;;;;-2.10;99.90;;;;;;5057717;28;20389;-74
2022/12/12 08:03:24;;;;;;;;;;;-2.10;99.90;;;;;;5047972;28;20198;-74
2022/12/12 08:05:50;;;;;;;;;;;-2.10;99.90;;;;;;5030699;28;20408;-77
2022/12/12 08:08:15;;;;;;;;;;;-2.10;99.90;;;;;;5030315;28;19986;-75
2022/12/12 08:10:41;;;;;;;;;;;-2.10;99.90;;;;;;5050802;28;20443;-74
2022/12/12 08:13:07;;;;;;;;;;;-2.10;99.90;;;;;;5029853;28;19929;-75
2022/12/12 08:15:33;;;;;;;;;;;-2.00;99.90;;;;;;5035912;28;19950;-74
2022/12/12 08:17:58;;;;;;;;;;;-2.10;99.90;;;;;;5053879;28;19920;-74
2022/12/12 08:20:24;;;;;;;;;;;-2.10;99.90;;;;;;5039820;28;20362;-75
2022/12/12 08:22:49;;;;;;;;;;;-2.10;99.90;;;;;;5033138;28;20043;-74
2022/12/12 08:25:15;;;;;;;;;;;-2.10;99.90;;;;;;5035131;28;19974;-75
2022/12/12 08:27:40;;;;;;;;;;;-2.10;99.90;;;;;;5048786;28;19930;-75
2022/12/12 08:30:07;;;;;;;;;;;-2.10;99.90;;;;;;5053598;28;19925;-75
2022/12/12 08:32:33;;;;;;;;;;;-2.10;99.90;;;;;;5045088;28;20354;-75
2022/12/12 08:34:58;;;;;;;;;;;-2.00;99.90;;;;;;5051066;28;20011;-75
2022/12/12 08:37:24;;;;;;;;;;;-2.00;99.90;;;;;;5053454;28;19929;-76
2022/12/12 08:39:50;;;;;;;;;;;-2.00;99.90;;;;;;5039345;28;19972;-76
2022/12/12 08:42:16;;;;;;;;;;;-2.00;99.90;;;;;;5051732;28;20378;-78
2022/12/12 08:44:41;;;;;;;;;;;-1.80;99.90;;;;;;5035730;28;19921;-77
2022/12/12 08:47:07;;;;;;;;;;;-1.90;99.90;;;;;;5051131;28;19963;-77
2022/12/12 08:49:33;;;;;;;;;;;-1.90;99.90;;;;;;5034801;28;19935;-78
2022/12/12 08:51:58;;;;;;;;;;;-1.80;99.90;;;;;;5052214;28;20016;-77
2022/12/12 08:54:24;;;;;;;;;;;-1.80;99.90;;;;;;5053965;28;20310;-78
2022/12/12 08:56:50;;;;;;;;;;;-1.70;99.90;;;;;;5057862;28;19975;-78
2022/12/12 08:59:15;;;;;;;;;;;-1.70;99.90;;;;;;5049466;28;20558;-78
2022/12/12 09:01:41;;;;;;;;;;;-1.70;99.90;;;;;;5034195;28;20371;-77
2022/12/12 09:04:06;;;;;;;;;;;-1.60;99.90;;;;;;5052728;28;19931;-77
2022/12/12 09:06:32;;;;;;;;;;;-1.60;99.90;;;;;;5035884;28;19921;-76
2022/12/12 09:08:58;;;;;;;;;;;-0.70;99.90;;;;;;5052733;28;19924;-77
2022/12/12 09:11:23;;;;;;;;;;;-1.40;99.90;;;;;;5034583;28;21511;-76
2022/12/12 09:13:49;;;;;;;;;;;-1.40;99.90;;;;;;5037238;28;19925;-76
2022/12/12 09:16:15;;;;;;;;;;;-1.40;99.90;;;;;;5033509;28;19932;-76
2022/12/12 09:18:41;;;;;;;;;;;-1.30;99.90;;;;;;5055382;28;19974;-75
2022/12/12 09:21:06;;;;;;;;;;;-1.20;99.90;;;;;;5035238;28;19921;-75
2022/12/12 09:23:32;;;;;;;;;;;-1.20;99.90;;;;;;5034194;28;19921;-76
2022/12/12 09:26:02;;;;;;;;;;;-1.10;99.90;;;;;;5017139;28;20320;-75
2022/12/12 09:28:28;;;;;;;;;;;-1.10;99.90;;;;;;5061800;28;20005;-76
2022/12/12 09:30:53;;;;;;;;;;;-1.00;99.90;;;;;;5051517;28;19942;-75
2022/12/12 09:33:19;;;;;;;;;;;-1.00;99.90;;;;;;5050710;28;20571;-76
2022/12/12 09:35:45;;;;;;;;;;;-0.90;99.90;;;;;;5050786;28;19936;-75
2022/12/12 09:38:11;;;;;;;;;;;-0.80;99.90;;;;;;5051896;28;20387;-75
2022/12/12 09:40:41;;;;;;;;;;;0.20;99.90;;;;;;5052535;28;19964;-75
2022/12/12 09:43:10;;;;;;;;;;;-0.80;99.90;;;;;;5053098;28;19927;-75
2022/12/12 09:45:37;;;;;;;;;;;-0.70;99.90;;;;;;5050600;28;19925;-75
2022/12/12 09:48:04;;;;;;;;;;;-0.70;99.90;;;;;;5017603;28;20034;-76
2022/12/12 09:50:31;;;;;;;;;;;-0.60;99.90;;;;;;5049246;28;19921;-76
2022/12/12 09:53:10;;;;;;;;;;;-0.50;99.90;;;;;;5049470;28;19927;-75
2022/12/12 09:55:48;;;;;;;;;;;-0.50;99.90;;;;;;5032506;28;19932;-75
2022/12/12 09:58:22;;;;;;;;;;;-0.40;99.90;;;;;;5049546;28;20009;-76
2022/12/12 10:00:53;;;;;;;;;;;-0.30;99.90;;;;;;5049724;28;19963;-76
2022/12/12 10:03:29;;;;;;;;;;;-0.30;99.90;;;;;;5047496;28;20385;-76
2022/12/12 10:05:55;;;;;;;;;;;-0.20;99.90;;;;;;5056240;28;20270;-76
2022/12/12 10:08:31;;;;;;;;;;;1.70;99.90;;;;;;5035459;28;19927;-76
2022/12/12 10:10:58;;;;;;;;;;;-0.20;99.90;;;;;;5050395;28;19928;-76
2022/12/12 10:13:25;;;;;;;;;;;1.70;99.90;;;;;;5050143;28;19928;-76
2022/12/12 10:15:52;;;;;;;;;;;-0.10;99.90;;;;;;5033462;28;20297;-76
2022/12/12 10:18:24;;;;;;;;;;;0.00;99.90;;;;;;5049149;28;19928;-76
2022/12/12 10:20:52;;;;;;;;;;;0.10;99.90;;;;;;5051021;28;19963;-76
2022/12/12 10:23:36;;;;;;;;;;;0.10;99.90;;;;;;5049704;28;19970;-76
2022/12/12 10:26:06;;;;;;;;;;;0.10;99.90;;;;;;5049846;28;19921;-76
2022/12/12 10:28:31;;;;;;;;;;;0.10;99.90;;;;;;5049237;28;19924;-76
2022/12/12 10:31:00;;;;;;;;;;;0.20;99.90;;;;;;5032072;28;19932;-76
2022/12/12 10:33:52;;;;;;;;;;;0.30;99.90;;;;;;5054194;28;19925;-76
2022/12/12 10:36:21;;;;;;;;;;;0.30;99.90;;;;;;5019573;28;20346;-76
2022/12/12 10:38:53;;;;;;;;;;;0.40;99.90;;;;;;5048732;28;19928;-76
2022/12/12 10:41:21;;;;;;;;;;;0.40;99.90;;;;;;5034252;28;21101;-75
2022/12/12 10:43:59;;;;;;;;;;;0.40;99.90;;;;;;5032620;28;19985;-76
2022/12/12 10:46:43;;;;;;;;;;;0.50;99.90;;;;;;5031832;28;19947;-76
2022/12/12 10:49:17;;;;;;;;;;;0.60;99.90;;;;;;5049748;28;19920;-76
2022/12/12 10:51:43;;;;;;;;;;;0.60;99.90;;;;;;5064938;28;19931;-76
2022/12/12 10:54:20;;;;;;;;;;;0.70;99.90;;;;;;5032842;28;19921;-76
2022/12/12 10:57:04;;;;;;;;;;;0.70;99.90;;;;;;5049070;28;19928;-76
2022/12/12 10:59:30;;;;;;;;;;;0.80;99.90;;;;;;5049605;28;19929;-76
2022/12/12 11:01:58;;;;;;;;;;;0.80;99.90;;;;;;5031893;28;20412;-76
2022/12/12 11:04:26;;;;;;;;;;;0.80;99.90;;;;;;5059666;28;20377;-76
2022/12/12 11:06:53;;;;;;;;;;;1.50;99.90;;;;;;5032581;28;19927;-76
2022/12/12 11:09:21;;;;;;;;;;;0.80;99.90;;;;;;5047122;28;19921;-75
2022/12/12 11:12:00;;;;;;;;;;;0.90;99.90;;;;;;5051025;28;19921;-75
2022/12/12 11:14:58;;;;;;;;;;;0.90;99.90;;;;;;5049416;28;20309;-75
2022/12/12 11:17:28;;;;;;;;;;;0.80;99.90;;;;;;4989070;28;19927;-75
2022/12/12 11:19:55;;;;;;;;;;;0.80;99.90;;;;;;5048829;28;20324;-77
2022/12/12 11:22:21;;;;;;;;;;;0.80;99.90;;;;;;5049550;28;19990;-77
2022/12/12 11:24:48;;;;;;;;;;;0.80;99.90;;;;;;5051848;28;21196;-77
2022/12/12 11:27:21;;;;;;;;;;;0.90;99.90;;;;;;5049156;28;20412;-77
2022/12/12 11:30:07;;;;;;;;;;;0.90;99.90;;;;;;5048794;28;19921;-77
2022/12/12 11:32:41;;;;;;;;;;;1.00;99.90;;;;;;5048159;28;19921;-77
2022/12/12 11:35:20;;;;;;;;;;;1.00;99.90;;;;;;5059622;28;19977;-77
2022/12/12 11:37:48;;;;;;;;;;;1.10;99.90;;;;;;5032712;28;19932;-76
2022/12/12 11:40:23;;;;;;;;;;;1.10;99.90;;;;;;5047242;28;19982;-75
2022/12/12 11:42:49;;;;;;;;;;;1.10;99.90;;;;;;5050505;28;20399;-77
2022/12/12 11:45:15;;;;;;;;;;;1.30;99.90;;;;;;5041960;28;19990;-77
2022/12/12 11:47:45;;;;;;;;;;;1.90;99.90;;;;;;5037582;28;20336;-77
2022/12/12 11:50:16;;;;;;;;;;;1.10;99.90;;;;;;5036341;28;19925;-77
2022/12/12 11:52:42;;;;;;;;;;;1.10;99.90;;;;;;5036594;28;19932;-78
2022/12/12 11:55:12;;;;;;;;;;;1.10;99.90;;;;;;5055202;28;19931;-77
2022/12/12 11:57:53;;;;;;;;;;;1.10;99.90;;;;;;5052740;28;19929;-77
2022/12/12 12:00:20;;;;;;;;;;;1.10;99.90;;;;;;5060046;28;19990;-77
2022/12/12 12:03:00;;;;;;;;;;;1.20;99.90;;;;;;5045093;28;19920;-77
2022/12/12 12:05:45;;;;;;;;;;;1.20;99.90;;;;;;5036352;28;19921;-77
2022/12/12 12:08:27;;;;;;;;;;;1.10;99.90;;;;;;5057717;28;19927;-77
2022/12/12 12:11:11;;;;;;;;;;;1.90;99.90;;;;;;5058909;28;19962;-76
2022/12/12 12:13:49;;;;;;;;;;;1.20;99.90;;;;;;5051701;28;21362;-75
2022/12/12 12:16:17;;;;;;;;;;;1.20;99.90;;;;;;5066462;28;20019;-75
2022/12/12 12:18:49;;;;;;;;;;;1.30;99.90;;;;;;5038749;28;19928;-75
2022/12/12 12:21:32;;;;;;;;;;;1.30;99.90;;;;;;5055345;28;19963;-75
2022/12/12 12:24:03;;;;;;;;;;;1.30;99.90;;;;;;5053727;28;20463;-75
2022/12/12 12:26:35;;;;;;;;;;;1.30;99.90;;;;;;5053236;28;19943;-75
2022/12/12 12:29:07;;;;;;;;;;;1.30;99.90;;;;;;5050857;28;19924;-75
2022/12/12 12:31:32;;;;;;;;;;;1.30;99.90;;;;;;5062525;28;20612;-75
2022/12/12 12:34:13;;;;;;;;;;;1.20;99.90;;;;;;5051027;28;19921;-75
2022/12/12 12:36:38;;;;;;;;;;;1.20;99.90;;;;;;5053955;28;19921;-75
2022/12/12 12:39:07;;;;;;;;;;;1.20;99.90;;;;;;5056566;28;19931;-75
2022/12/12 12:41:48;;;;;;;;;;;1.20;99.90;;;;;;5055679;28;19948;-75
2022/12/12 12:44:20;;;;;;;;;;;1.20;99.90;;;;;;5059421;28;20441;-75
2022/12/12 12:46:48;;;;;;;;;;;1.30;99.90;;;;;;5053121;28;19921;-75
2022/12/12 12:49:18;;;;;;;;;;;1.30;99.90;;;;;;5054165;28;19963;-75
2022/12/12 12:51:50;;;;;;;;;;;1.30;99.90;;;;;;5053453;28;19928;-75
2022/12/12 12:54:24;;;;;;;;;;;1.30;99.90;;;;;;5052731;28;19956;-75
2022/12/12 12:57:03;;;;;;;;;;;1.30;99.90;;;;;;5057280;28;19927;-78
2022/12/12 12:59:37;;;;;;;;;;;1.30;99.90;;;;;;5042401;28;19921;-77
2022/12/12 13:02:35;;;;;;;;;;;1.20;99.90;;;;;;5059884;28;19927;-78
2022/12/12 13:05:07;;;;;;;;;;;1.20;99.90;;;;;;5008615;28;20362;-75
2022/12/12 13:07:40;;;;;;;;;;;1.30;99.90;;;;;;5025120;28;19971;-76
2022/12/12 13:10:09;;;;;;;;;;;2.00;99.90;;;;;;5050188;28;20382;-77
2022/12/12 13:12:43;;;;;;;;;;;1.20;99.90;;;;;;5036024;28;19916;-76
2022/12/12 13:15:30;;;;;;;;;;;1.20;99.90;;;;;;5048049;28;20148;-76
2022/12/12 13:18:03;;;;;;;;;;;1.10;99.90;;;;;;5050327;28;19974;-75
2022/12/12 13:20:31;;;;;;;;;;;1.10;99.90;;;;;;5035156;28;20070;-75
2022/12/12 13:22:57;;;;;;;;;;;1.10;99.90;;;;;;5052641;28;20031;-76
2022/12/12 13:25:38;;;;;;;;;;;1.40;99.90;;;;;;5042099;28;20039;-75
2022/12/12 13:28:06;;;;;;;;;;;1.10;99.90;;;;;;5058667;28;20298;-76
2022/12/12 13:30:45;;;;;;;;;;;1.10;99.90;;;;;;5053100;28;19960;-76
2022/12/12 13:33:10;;;;;;;;;;;1.10;99.90;;;;;;5045845;28;19920;-75
2022/12/12 13:35:41;;;;;;;;;;;1.10;99.90;;;;;;5039763;28;19936;-75
2022/12/12 13:38:15;;;;;;;;;;;1.10;99.90;;;;;;5035052;28;19921;-75
2022/12/12 13:40:41;;;;;;;;;;;1.20;99.90;;;;;;5051101;28;20380;-76
2022/12/12 13:43:25;;;;;;;;;;;1.00;99.90;;;;;;5059415;28;20055;-75
2022/12/12 13:45:50;;;;;;;;;;;1.00;99.90;;;;;;5050548;28;19920;-75
2022/12/12 13:48:28;;;;;;;;;;;0.90;99.90;;;;;;5039030;28;19920;-76
2022/12/12 13:51:12;;;;;;;;;;;0.90;99.90;;;;;;5035098;28;19924;-75
2022/12/12 13:53:38;;;;;;;;;;;0.90;99.90;;;;;;5052335;28;19929;-75
2022/12/12 13:56:27;;;;;;;;;;;0.80;99.90;;;;;;5039011;28;19932;-76
2022/12/12 13:58:52;;;;;;;;;;;0.80;99.90;;;;;;5045734;28;19921;-75
2022/12/12 14:01:27;;;;;;;;;;;1.30;99.90;;;;;;5018464;28;19929;-75
2022/12/12 14:03:53;;;;;;;;;;;0.70;99.90;;;;;;5035673;28;19928;-75
2022/12/12 14:06:19;;;;;;;;;;;0.70;99.90;;;;;;5049469;28;20541;-75
2022/12/12 14:08:48;;;;;;;;;;;0.70;99.90;;;;;;5018752;28;20630;-75
2022/12/12 14:11:24;;;;;;;;;;;0.70;99.90;;;;;;5050763;28;19921;-76
2022/12/12 14:13:50;;;;;;;;;;;0.60;99.90;;;;;;5033923;28;19927;-76
2022/12/12 14:16:18;;;;;;;;;;;0.70;99.90;;;;;;5038936;28;19925;-76
2022/12/12 14:18:47;;;;;;;;;;;0.70;99.90;;;;;;5050903;28;19921;-75
2022/12/12 14:21:13;;;;;;;;;;;0.60;99.90;;;;;;5051790;28;19921;-76
2022/12/12 14:23:43;;;;;;;;;;;0.60;99.90;;;;;;5033917;28;19929;-75
2022/12/12 14:26:27;;;;;;;;;;;1.50;99.90;;;;;;5033718;28;20020;-75
2022/12/12 14:29:13;;;;;;;;;;;0.50;99.90;;;;;;5052817;28;19932;-75
2022/12/12 14:31:40;;;;;;;;;;;0.50;99.90;;;;;;5034519;28;20000;-76
2022/12/12 14:34:15;;;;;;;;;;;1.10;99.90;;;;;;5048304;28;19921;-75
2022/12/12 14:36:43;;;;;;;;;;;0.40;99.90;;;;;;5057079;28;19974;-75
2022/12/12 14:39:38;;;;;;;;;;;0.40;99.90;;;;;;5050521;28;19921;-75
2022/12/12 14:42:05;;;;;;;;;;;0.40;99.90;;;;;;5033992;28;20138;-75
2022/12/12 14:44:30;;;;;;;;;;;0.40;99.90;;;;;;5049792;28;19943;-75
2022/12/12 14:46:57;;;;;;;;;;;0.40;99.90;;;;;;5050405;28;20695;-75
2022/12/12 14:49:22;;;;;;;;;;;0.30;99.90;;;;;;5048576;28;20345;-75
2022/12/12 14:51:49;;;;;;;;;;;0.30;99.90;;;;;;5035660;28;19921;-75
2022/12/12 14:54:16;;;;;;;;;;;0.20;99.90;;;;;;5044801;28;20127;-75